createdAt,value
2023-02-11T00:01:32.930Z,25.50
2023-02-11T00:04:02.381Z,25.00
2023-02-11T00:06:32.600Z,25.70
2023-02-11T00:09:01.872Z,25.60
2023-02-11T00:11:30.734Z,24.80
2023-02-11T00:14:05.461Z,25.70
2023-02-11T00:16:34.175Z,25.80
2023-02-11T00:19:05.663Z,25.60
2023-02-11T00:21:35.922Z,24.80
2023-02-11T00:24:04.322Z,24.70
2023-02-11T00:26:35.458Z,25.70
2023-02-11T00:29:04.684Z,25.90
2023-02-11T00:31:33.490Z,26.20
2023-02-11T00:34:01.795Z,25.80
2023-02-11T00:36:30.946Z,25.70
2023-02-11T00:39:00.205Z,26.70
2023-02-11T00:41:29.714Z,25.30
2023-02-11T00:44:01.103Z,25.40
2023-02-11T00:46:29.424Z,25.90
2023-02-11T00:48:58.061Z,26.40
2023-02-11T00:51:29.507Z,25.50
2023-02-11T00:53:57.544Z,25.50
2023-02-11T00:56:25.617Z,26.40
2023-02-11T00:58:54.329Z,26.50
2023-02-11T01:01:22.444Z,26.30
2023-02-11T01:03:50.927Z,26.40
2023-02-11T01:06:19.260Z,26.80
2023-02-11T01:08:47.292Z,26.00
2023-02-11T01:11:18.657Z,26.70
2023-02-11T01:13:48.853Z,27.00
2023-02-11T01:16:18.087Z,26.10
2023-02-11T01:18:47.428Z,26.30
2023-02-11T01:21:16.332Z,26.10
2023-02-11T01:23:44.582Z,26.50
2023-02-11T01:26:13.427Z,26.30
2023-02-11T01:28:41.471Z,26.20
2023-02-11T01:31:09.584Z,26.70
2023-02-11T01:33:37.667Z,26.70
2023-02-11T01:36:08.271Z,27.40
2023-02-11T01:38:36.969Z,26.40
2023-02-11T01:41:08.359Z,26.10
2023-02-11T01:43:43.516Z,26.80
2023-02-11T01:46:28.157Z,27.20
2023-02-11T01:49:02.783Z,27.50
2023-02-11T01:51:38.999Z,26.70
2023-02-11T01:54:39.687Z,26.60
2023-02-11T01:57:25.077Z,27.10
2023-02-11T02:00:24.312Z,27.20
2023-02-11T02:02:55.404Z,27.80
2023-02-11T02:05:35.047Z,27.80
2023-02-11T02:08:03.143Z,27.30
2023-02-11T02:10:31.706Z,27.40
2023-02-11T02:12:59.773Z,27.70
2023-02-11T02:15:34.655Z,28.20
2023-02-11T02:18:09.854Z,28.00
2023-02-11T02:20:50.753Z,28.20
2023-02-11T02:23:39.058Z,29.00
2023-02-11T02:26:26.174Z,28.80
2023-02-11T02:28:57.003Z,28.20
2023-02-11T02:31:39.962Z,28.40
2023-02-11T02:34:20.798Z,29.10
2023-02-11T02:36:58.248Z,29.20
2023-02-11T02:39:31.825Z,29.30
2023-02-11T02:42:00.033Z,29.80
2023-02-11T02:44:29.204Z,29.70
2023-02-11T02:46:58.434Z,29.30
2023-02-11T02:49:26.449Z,29.50
2023-02-11T02:52:19.433Z,29.50
2023-02-11T02:55:01.913Z,30.30
2023-02-11T02:57:45.684Z,29.30
2023-02-11T03:00:25.755Z,31.10
2023-02-11T03:03:18.918Z,28.90
2023-02-11T03:05:57.507Z,29.60
2023-02-11T03:08:33.585Z,29.50
2023-02-11T03:11:03.161Z,29.90
2023-02-11T03:13:36.024Z,28.80
2023-02-11T03:16:28.145Z,29.20
2023-02-11T03:19:21.257Z,29.50
2023-02-11T03:21:52.110Z,29.10
2023-02-11T03:24:36.990Z,29.40
2023-02-11T03:27:20.621Z,29.20
2023-02-11T03:30:05.693Z,29.30
2023-02-11T03:32:40.276Z,28.70
2023-02-11T03:35:23.441Z,28.90
2023-02-11T03:38:00.621Z,28.60
2023-02-11T03:40:32.794Z,29.10
2023-02-11T03:43:07.361Z,28.80
2023-02-11T03:45:37.470Z,29.20
2023-02-11T03:48:14.712Z,28.20
2023-02-11T03:50:45.739Z,28.60
2023-02-11T03:53:14.973Z,28.70
2023-02-11T03:55:44.382Z,27.80
2023-02-11T03:58:12.452Z,28.40
2023-02-11T04:00:42.689Z,28.60
2023-02-11T04:03:11.648Z,27.40
2023-02-11T04:05:40.733Z,27.80
2023-02-11T04:08:08.903Z,27.00
2023-02-11T04:10:37.188Z,27.30
2023-02-11T04:13:05.137Z,26.90
2023-02-11T04:15:33.632Z,26.40
2023-02-11T04:18:03.545Z,26.50
2023-02-11T04:20:31.584Z,26.60
2023-02-11T04:22:59.679Z,26.70
2023-02-11T04:25:27.830Z,26.30
2023-02-11T04:27:55.950Z,26.90
2023-02-11T04:30:25.335Z,26.10
2023-02-11T04:32:54.520Z,25.90
2023-02-11T04:35:22.629Z,26.60
2023-02-11T04:37:50.662Z,26.40
2023-02-11T04:40:18.852Z,25.60
2023-02-11T04:42:46.931Z,25.80
2023-02-11T04:45:15.006Z,26.00
2023-02-11T04:47:43.055Z,25.50
2023-02-11T04:50:11.222Z,25.20
2023-02-11T04:52:39.312Z,25.50
2023-02-11T04:55:07.577Z,24.60
2023-02-11T04:57:35.612Z,25.60
2023-02-11T05:00:04.243Z,24.60
2023-02-11T05:02:32.465Z,26.00
2023-02-11T05:05:00.581Z,25.50
2023-02-11T05:07:28.737Z,24.90
2023-02-11T05:09:56.912Z,25.00
2023-02-11T05:12:24.981Z,26.00
2023-02-11T05:14:53.053Z,25.60
2023-02-11T05:17:21.029Z,25.70
2023-02-11T05:19:49.086Z,25.90
2023-02-11T05:22:17.037Z,26.30
2023-02-11T05:24:45.030Z,26.10
2023-02-11T05:27:13.307Z,25.60
2023-02-11T05:29:41.468Z,26.30
2023-02-11T05:32:09.574Z,26.60
2023-02-11T05:34:37.821Z,26.80
2023-02-11T05:37:05.920Z,26.00
2023-02-11T05:39:33.822Z,25.40
2023-02-11T05:42:01.806Z,24.60
2023-02-11T05:44:29.821Z,26.50
2023-02-11T05:46:57.832Z,25.80
2023-02-11T05:49:25.934Z,26.60
2023-02-11T05:51:53.902Z,26.80
2023-02-11T05:54:22.114Z,26.40
2023-02-11T05:56:50.225Z,26.60
2023-02-11T05:59:18.418Z,26.70
2023-02-11T06:01:46.487Z,26.50
2023-02-11T06:04:14.503Z,26.60
2023-02-11T06:06:42.558Z,26.50
2023-02-11T06:09:11.935Z,26.20
2023-02-11T06:11:39.897Z,26.60
2023-02-11T06:14:08.224Z,26.80
2023-02-11T06:16:36.389Z,27.50
2023-02-11T06:19:04.527Z,26.80
2023-02-11T06:21:43.499Z,28.30
2023-02-11T06:24:12.870Z,26.40
2023-02-11T06:26:40.943Z,26.60
2023-02-11T06:29:09.080Z,26.50
2023-02-11T06:31:37.994Z,26.60
2023-02-11T06:34:06.269Z,26.90
2023-02-11T06:36:34.628Z,26.50
2023-02-11T06:39:03.474Z,26.70
2023-02-11T06:41:31.500Z,26.50
2023-02-11T06:44:00.091Z,26.50
2023-02-11T06:46:28.149Z,26.50
2023-02-11T06:48:56.624Z,27.60
2023-02-11T06:51:24.798Z,27.50
2023-02-11T06:53:52.761Z,26.80
2023-02-11T06:56:27.552Z,27.00
2023-02-11T06:58:56.279Z,27.00
2023-02-11T07:01:25.666Z,27.10
2023-02-11T07:03:54.769Z,27.80
2023-02-11T07:06:27.872Z,26.40
2023-02-11T07:08:56.751Z,27.40
2023-02-11T07:11:28.197Z,26.50
2023-02-11T07:14:01.354Z,25.10
2023-02-11T07:16:30.011Z,26.20
2023-02-11T07:18:58.416Z,25.50
2023-02-11T07:21:26.537Z,25.50
2023-02-11T07:23:55.025Z,25.20
2023-02-11T07:26:24.510Z,25.80
2023-02-11T07:28:53.300Z,27.60
2023-02-11T07:31:27.903Z,27.10
2023-02-11T07:34:00.077Z,26.80
2023-02-11T07:36:30.573Z,26.00
2023-02-11T07:38:58.901Z,26.10
2023-02-11T07:41:27.208Z,25.80
2023-02-11T07:43:55.968Z,25.30
2023-02-11T07:46:26.460Z,25.70
2023-02-11T07:48:55.580Z,25.60
2023-02-11T07:51:26.718Z,25.10
2023-02-11T07:53:56.127Z,24.50
2023-02-11T07:56:24.430Z,24.00
2023-02-11T07:58:52.987Z,23.70
2023-02-11T08:01:26.281Z,23.50
2023-02-11T08:03:58.966Z,23.80
2023-02-11T08:06:30.259Z,23.90
2023-02-11T08:09:03.120Z,22.70
2023-02-11T08:11:31.476Z,23.50
2023-02-11T08:13:59.524Z,22.20
2023-02-11T08:16:30.144Z,23.00
2023-02-11T08:19:01.203Z,23.30
2023-02-11T08:21:29.505Z,22.70
2023-02-11T08:23:57.688Z,22.80
2023-02-11T08:26:29.388Z,22.10
2023-02-11T08:28:59.079Z,22.20
2023-02-11T08:31:39.297Z,21.40
2023-02-11T08:34:08.072Z,21.80
2023-02-11T08:36:38.364Z,22.50
2023-02-11T08:39:19.186Z,21.90
2023-02-11T08:41:53.779Z,21.40
2023-02-11T08:44:23.075Z,20.70
2023-02-11T08:46:51.851Z,20.70
2023-02-11T08:49:20.280Z,20.30
2023-02-11T08:51:49.209Z,20.10
2023-02-11T08:54:17.279Z,20.20
2023-02-11T08:56:46.179Z,20.40
2023-02-11T08:59:15.657Z,20.00
2023-02-11T09:01:44.517Z,20.20
2023-02-11T09:04:13.153Z,20.90
2023-02-11T09:06:41.494Z,20.90
2023-02-11T09:09:13.750Z,20.20
2023-02-11T09:11:43.177Z,20.70
2023-02-11T09:14:20.518Z,21.20
2023-02-11T09:16:49.112Z,20.90
2023-02-11T09:19:18.235Z,20.50
2023-02-11T09:21:46.865Z,20.80
2023-02-11T09:24:15.177Z,20.60
2023-02-11T09:26:43.613Z,20.10
2023-02-11T09:29:11.684Z,20.80
2023-02-11T09:31:39.837Z,21.20
2023-02-11T09:34:08.015Z,21.10
2023-02-11T09:36:38.624Z,21.20
2023-02-11T09:39:09.992Z,20.70
2023-02-11T09:42:19.924Z,20.40
2023-02-11T09:44:48.100Z,20.80
2023-02-11T09:47:27.058Z,22.50
2023-02-11T09:50:02.499Z,23.80
2023-02-11T09:52:44.069Z,21.70
2023-02-11T09:55:21.974Z,21.20
2023-02-11T09:57:50.134Z,21.00
2023-02-11T10:00:43.334Z,21.10
2023-02-11T10:03:21.836Z,20.60
2023-02-11T10:05:52.566Z,20.80
2023-02-11T10:08:47.502Z,20.60
2023-02-11T10:11:31.194Z,20.60
2023-02-11T10:14:29.164Z,20.60
2023-02-11T10:17:28.057Z,20.10
2023-02-11T10:20:18.067Z,20.70
2023-02-11T10:22:50.143Z,20.30
2023-02-11T10:25:43.659Z,20.70
2023-02-11T10:28:17.150Z,20.00
2023-02-11T10:30:59.588Z,20.00
2023-02-11T10:33:36.937Z,19.60
2023-02-11T10:36:05.756Z,19.70
2023-02-11T10:38:34.103Z,20.20
2023-02-11T10:41:02.325Z,20.00
2023-02-11T10:43:32.132Z,19.60
2023-02-11T10:46:02.938Z,19.80
2023-02-11T10:48:41.976Z,20.40
2023-02-11T10:51:19.062Z,20.00
2023-02-11T10:54:19.483Z,19.20
2023-02-11T10:56:58.569Z,18.60
2023-02-11T10:59:30.996Z,18.80
2023-02-11T11:02:08.143Z,17.40
2023-02-11T11:04:45.821Z,16.70
2023-02-11T11:07:27.556Z,16.40
2023-02-11T11:10:00.382Z,17.10
2023-02-11T11:12:28.304Z,15.70
2023-02-11T11:15:01.931Z,13.40
2023-02-11T11:17:29.994Z,11.70
2023-02-11T11:20:35.675Z,11.50
2023-02-11T11:23:09.636Z,11.20
2023-02-11T11:25:41.935Z,11.60
2023-02-11T11:28:21.865Z,11.30
2023-02-11T11:30:50.855Z,11.10
2023-02-11T11:33:23.026Z,12.70
2023-02-11T11:36:11.640Z,12.40
2023-02-11T11:38:58.888Z,14.20
2023-02-11T11:41:30.879Z,16.10
2023-02-11T11:44:00.471Z,16.30
2023-02-11T11:46:32.064Z,14.60
2023-02-11T11:49:36.010Z,14.60
2023-02-11T11:52:19.678Z,11.70
2023-02-11T11:54:56.008Z,13.10
2023-02-11T11:57:28.863Z,14.60
2023-02-11T11:59:58.359Z,14.60
2023-02-11T12:03:08.509Z,16.40
2023-02-11T12:05:47.070Z,17.80
2023-02-11T12:08:46.180Z,18.70
2023-02-11T12:11:16.913Z,15.30
2023-02-11T12:14:03.719Z,12.40
2023-02-11T12:16:50.565Z,12.30
2023-02-11T12:19:45.754Z,11.50
2023-02-11T12:22:34.625Z,14.90
2023-02-11T12:25:05.227Z,13.90
2023-02-11T12:28:01.990Z,15.60
2023-02-11T12:30:54.526Z,15.70
2023-02-11T12:33:48.477Z,14.10
2023-02-11T12:36:41.343Z,11.30
2023-02-11T12:39:12.086Z,11.70
2023-02-11T12:42:34.512Z,11.10
2023-02-11T12:45:11.524Z,11.50
2023-02-11T12:48:05.783Z,11.60
2023-02-11T12:50:49.503Z,11.70
2023-02-11T12:53:49.638Z,11.00
2023-02-11T12:57:05.629Z,10.60
2023-02-11T12:59:58.943Z,12.20
2023-02-11T13:02:41.927Z,10.50
2023-02-11T13:05:49.594Z,10.30
2023-02-11T13:08:35.490Z,9.90
2023-02-11T13:11:16.177Z,9.80
2023-02-11T13:13:53.245Z,11.60
2023-02-11T13:16:31.119Z,11.00
2023-02-11T13:19:07.319Z,12.50
2023-02-11T13:21:54.420Z,11.70
2023-02-11T13:24:41.039Z,11.00
2023-02-11T13:27:27.430Z,12.10
2023-02-11T13:30:04.420Z,11.50
2023-02-11T13:32:54.238Z,11.30
2023-02-11T13:35:40.237Z,12.70
2023-02-11T13:38:17.365Z,12.60
2023-02-11T13:40:45.956Z,12.20
2023-02-11T13:43:26.125Z,12.10
2023-02-11T13:46:10.436Z,12.10
2023-02-11T13:48:46.914Z,13.30
2023-02-11T13:51:34.537Z,13.40
2023-02-11T13:54:03.950Z,11.90
2023-02-11T13:56:38.079Z,12.30
2023-02-11T13:59:27.493Z,11.50
2023-02-11T14:02:39.776Z,10.50
2023-02-11T14:05:26.125Z,8.30
2023-02-11T14:08:28.184Z,7.50
2023-02-11T14:11:01.022Z,7.00
2023-02-11T14:13:31.917Z,5.90
2023-02-11T14:16:36.522Z,6.30
2023-02-11T14:19:06.519Z,7.40
2023-02-11T14:21:38.251Z,6.90
2023-02-11T14:24:07.245Z,6.40
2023-02-11T14:26:58.628Z,6.80
2023-02-11T14:29:38.703Z,6.60
2023-02-11T14:32:41.073Z,6.60
2023-02-11T14:35:20.897Z,6.90
2023-02-11T14:37:56.672Z,6.70
2023-02-11T14:40:49.295Z,6.50
2023-02-11T14:43:24.438Z,6.50
2023-02-11T14:45:55.946Z,7.00
2023-02-11T14:48:35.165Z,7.30
2023-02-11T14:51:25.875Z,7.50
2023-02-11T14:53:59.393Z,7.00
2023-02-11T14:56:31.261Z,7.20
2023-02-11T14:58:59.240Z,7.20
2023-02-11T15:01:35.849Z,8.10
2023-02-11T15:04:06.510Z,7.40
2023-02-11T15:06:39.454Z,7.60
2023-02-11T15:09:18.634Z,6.90
2023-02-11T15:11:51.297Z,7.30
2023-02-11T15:14:28.496Z,6.60
2023-02-11T15:17:09.752Z,6.80
2023-02-11T15:19:45.020Z,6.60
2023-02-11T15:22:34.393Z,6.50
2023-02-11T15:25:16.816Z,5.80
2023-02-11T15:27:50.202Z,6.00
2023-02-11T15:30:25.022Z,5.90
2023-02-11T15:33:00.179Z,6.00
2023-02-11T15:35:36.830Z,5.60
2023-02-11T15:38:05.815Z,5.90
2023-02-11T15:40:36.573Z,5.80
2023-02-11T15:43:07.771Z,4.90
2023-02-11T15:45:40.316Z,5.50
2023-02-11T15:48:20.286Z,5.40
2023-02-11T15:50:54.451Z,5.90
2023-02-11T15:53:28.707Z,8.90
2023-02-11T15:56:25.610Z,6.10
2023-02-11T15:58:56.114Z,6.40
2023-02-11T16:01:34.860Z,6.60
2023-02-11T16:04:05.486Z,6.70
2023-02-11T16:06:42.168Z,6.80
2023-02-11T16:09:12.766Z,6.60
2023-02-11T16:11:46.521Z,6.50
2023-02-11T16:14:42.393Z,6.20
2023-02-11T16:17:25.034Z,6.60
2023-02-11T16:19:54.663Z,7.10
2023-02-11T16:22:27.645Z,8.00
2023-02-11T16:24:59.628Z,7.00
2023-02-11T16:27:34.152Z,7.10
2023-02-11T16:30:02.894Z,7.60
2023-02-11T16:32:31.643Z,7.00
2023-02-11T16:35:01.499Z,4.80
2023-02-11T16:37:29.562Z,3.70
2023-02-11T16:39:58.363Z,3.90
2023-02-11T16:42:26.477Z,3.00
2023-02-11T16:44:54.486Z,3.00
2023-02-11T16:47:27.891Z,2.70
2023-02-11T16:49:56.300Z,2.90
2023-02-11T16:52:24.729Z,3.80
2023-02-11T16:54:53.619Z,2.60
2023-02-11T16:57:24.784Z,3.10
2023-02-11T16:59:53.379Z,3.30
2023-02-11T17:02:34.023Z,2.90
2023-02-11T17:05:05.353Z,3.80
2023-02-11T17:07:33.860Z,3.40
2023-02-11T17:10:02.274Z,2.80
2023-02-11T17:12:30.298Z,3.50
2023-02-11T17:14:58.279Z,3.00
2023-02-11T17:17:26.329Z,2.80
2023-02-11T17:19:54.265Z,2.40
2023-02-11T17:22:22.364Z,2.30
2023-02-11T17:24:51.065Z,3.00
2023-02-11T17:27:19.038Z,2.50
2023-02-11T17:29:47.202Z,2.40
2023-02-11T17:32:15.253Z,2.40
2023-02-11T17:34:43.341Z,2.50
2023-02-11T17:37:11.334Z,2.60
2023-02-11T17:39:40.075Z,2.30
2023-02-11T17:42:08.918Z,3.40
2023-02-11T17:44:37.457Z,3.30
2023-02-11T17:47:05.528Z,2.50
2023-02-11T17:49:33.721Z,2.50
2023-02-11T17:52:01.890Z,1.80
2023-02-11T17:54:30.085Z,2.20
2023-02-11T17:56:58.640Z,3.10
2023-02-11T17:59:29.976Z,2.80
2023-02-11T18:01:58.160Z,2.40
2023-02-11T18:04:26.304Z,2.10
2023-02-11T18:06:54.394Z,2.10
2023-02-11T18:09:22.417Z,2.20
2023-02-11T18:11:52.643Z,2.10
2023-02-11T18:14:23.015Z,2.00
2023-02-11T18:16:52.682Z,1.90
2023-02-11T18:19:20.891Z,2.20
2023-02-11T18:21:50.521Z,2.00
2023-02-11T18:24:18.985Z,1.60
2023-02-11T18:26:47.052Z,1.90
2023-02-11T18:29:15.120Z,2.50
2023-02-11T18:31:43.148Z,2.50
2023-02-11T18:34:11.468Z,2.50
2023-02-11T18:36:39.743Z,3.20
2023-02-11T18:39:08.039Z,4.10
2023-02-11T18:41:36.037Z,2.70
2023-02-11T18:44:05.302Z,3.90
2023-02-11T18:46:33.310Z,3.60
2023-02-11T18:49:02.052Z,3.40
2023-02-11T18:51:32.572Z,3.30
2023-02-11T18:54:01.508Z,3.60
2023-02-11T18:56:29.611Z,3.20
2023-02-11T18:58:58.385Z,2.50
2023-02-11T19:01:28.071Z,3.10
2023-02-11T19:03:58.616Z,3.00
2023-02-11T19:06:29.046Z,2.60
2023-02-11T19:09:00.202Z,3.00
2023-02-11T19:11:49.986Z,3.20
2023-02-11T19:14:22.173Z,3.10
2023-02-11T19:16:52.975Z,3.50
2023-02-11T19:19:25.711Z,3.00
2023-02-11T19:21:54.847Z,2.90
2023-02-11T19:24:24.252Z,3.50
2023-02-11T19:26:57.066Z,3.30
2023-02-11T19:29:25.617Z,3.90
2023-02-11T19:31:54.475Z,4.50
2023-02-11T19:34:22.543Z,5.10
2023-02-11T19:36:51.052Z,4.70
2023-02-11T19:39:19.255Z,4.80
2023-02-11T19:41:47.434Z,5.40
2023-02-11T19:44:16.293Z,5.10
2023-02-11T19:46:46.107Z,4.70
2023-02-11T19:49:17.896Z,3.70
2023-02-11T19:51:46.835Z,4.00
2023-02-11T19:54:14.846Z,4.00
2023-02-11T19:56:44.883Z,4.00
2023-02-11T19:59:13.967Z,4.10
2023-02-11T20:01:42.391Z,5.40
2023-02-11T20:04:10.917Z,4.80
2023-02-11T20:06:38.986Z,4.50
2023-02-11T20:09:11.322Z,3.90
2023-02-11T20:11:40.156Z,3.60
2023-02-11T20:14:10.686Z,3.60
2023-02-11T20:16:48.282Z,4.20
2023-02-11T20:19:20.562Z,3.70
2023-02-11T20:21:52.253Z,3.40
2023-02-11T20:24:21.732Z,3.40
2023-02-11T20:26:49.902Z,2.80
2023-02-11T20:29:18.623Z,3.10
2023-02-11T20:31:46.994Z,3.50
2023-02-11T20:34:17.760Z,3.70
2023-02-11T20:36:52.126Z,3.90
2023-02-11T20:39:22.560Z,2.80
2023-02-11T20:41:52.576Z,3.40
2023-02-11T20:44:24.446Z,4.00
2023-02-11T20:46:54.566Z,3.60
2023-02-11T20:49:24.977Z,2.40
2023-02-11T20:51:54.046Z,2.40
2023-02-11T20:54:23.571Z,2.50
2023-02-11T20:56:53.893Z,2.20
2023-02-11T20:59:24.682Z,2.10
2023-02-11T21:01:55.706Z,1.90
2023-02-11T21:04:30.478Z,2.30
2023-02-11T21:07:01.635Z,2.60
2023-02-11T21:09:33.357Z,3.80
2023-02-11T21:12:01.993Z,5.20
2023-02-11T21:14:30.448Z,6.30
2023-02-11T21:16:58.999Z,4.50
2023-02-11T21:19:27.351Z,5.40
2023-02-11T21:21:57.412Z,5.70
2023-02-11T21:24:25.674Z,4.80
2023-02-11T21:26:53.835Z,4.70
2023-02-11T21:29:22.388Z,4.60
2023-02-11T21:31:51.508Z,4.20
2023-02-11T21:34:20.280Z,3.80
2023-02-11T21:36:51.208Z,3.30
2023-02-11T21:39:20.491Z,3.60
2023-02-11T21:41:48.770Z,4.20
2023-02-11T21:44:16.846Z,4.60
2023-02-11T21:46:44.868Z,4.30
2023-02-11T21:49:12.992Z,4.90
2023-02-11T21:51:40.953Z,5.10
2023-02-11T21:54:11.303Z,4.00
2023-02-11T21:56:39.300Z,3.80
2023-02-11T21:59:07.461Z,3.90
2023-02-11T22:01:36.022Z,4.40
2023-02-11T22:04:04.303Z,4.90
2023-02-11T22:06:34.637Z,4.60
2023-02-11T22:09:05.674Z,4.00
2023-02-11T22:11:33.692Z,4.30
2023-02-11T22:14:01.750Z,4.10
2023-02-11T22:16:30.848Z,4.30
2023-02-11T22:18:59.779Z,3.50
2023-02-11T22:21:28.193Z,4.80
2023-02-11T22:23:56.589Z,4.80
2023-02-11T22:26:26.590Z,6.00
2023-02-11T22:28:55.565Z,5.20
2023-02-11T22:31:30.169Z,5.10
2023-02-11T22:33:59.096Z,3.60
2023-02-11T22:36:30.115Z,3.40
2023-02-11T22:39:08.386Z,3.20
2023-02-11T22:41:38.452Z,3.10
2023-02-11T22:44:06.766Z,3.10
2023-02-11T22:46:35.559Z,5.00
2023-02-11T22:49:05.291Z,5.10
2023-02-11T22:51:33.898Z,4.50
2023-02-11T22:54:05.039Z,5.20
2023-02-11T22:56:35.020Z,3.70
2023-02-11T22:59:06.305Z,5.60
2023-02-11T23:01:35.167Z,7.00
2023-02-11T23:04:05.776Z,6.50
2023-02-11T23:06:34.807Z,4.50
2023-02-11T23:09:04.786Z,5.00
2023-02-11T23:11:33.601Z,2.80
2023-02-11T23:14:02.594Z,2.90
2023-02-11T23:16:33.059Z,2.70
2023-02-11T23:19:05.205Z,3.50
2023-02-11T23:21:35.889Z,4.00
2023-02-11T23:24:08.174Z,3.40
2023-02-11T23:26:39.405Z,3.00
2023-02-11T23:29:08.153Z,3.50
2023-02-11T23:31:39.999Z,3.20
2023-02-11T23:34:08.870Z,2.20
2023-02-11T23:36:37.686Z,3.10
2023-02-11T23:39:06.099Z,3.70
2023-02-11T23:41:34.152Z,2.60
2023-02-11T23:44:02.237Z,2.00
2023-02-11T23:46:30.295Z,1.90
2023-02-11T23:48:58.329Z,1.80
2023-02-11T23:51:26.292Z,1.40
2023-02-11T23:53:56.416Z,1.80
2023-02-11T23:56:27.835Z,1.50
2023-02-11T23:58:58.765Z,2.80
